Time;durP1;ratioP1;P1;durP2;ratioP2;P2;SDS_P1;SDS_P2;PMS_P1;PMS_P2;Temp;Humidity;BMP_temperature;BMP_pressure;BME280_temperature;BME280_humidity;BME280_pressure;Samples;Min_cycle;Max_cycle;Signal;HPM_P1;HPM_P2
2021/12/20 00:01:09;;;;;;;4.30;2.93;;;;;;;1.81;79.00;94771.53;1616327;88;21090;-66
2021/12/20 00:03:36;;;;;;;2.00;1.43;;;;;;;1.79;79.23;94774.58;1579016;90;21115;-66
2021/12/20 00:06:04;;;;;;;4.30;2.40;;;;;;;1.75;79.50;94784.53;1579064;91;21095;-66
2021/12/20 00:08:31;;;;;;;5.77;2.77;;;;;;;1.77;79.60;94768.50;1590433;90;21113;-66
2021/12/20 00:10:57;;;;;;;4.67;2.87;;;;;;;1.70;79.96;94763.71;1637434;88;21114;-66
2021/12/20 00:13:24;;;;;;;5.43;3.43;;;;;;;1.66;80.12;94763.29;1637125;87;21486;-66
2021/12/20 00:15:51;;;;;;;3.50;2.83;;;;;;;1.62;80.26;94765.88;1637125;87;21092;-66
2021/12/20 00:18:18;;;;;;;5.37;3.13;;;;;;;1.53;81.11;94784.04;1636857;88;21068;-66
2021/12/20 00:20:44;;;;;;;4.00;2.90;;;;;;;1.51;80.88;94782.72;1636911;87;21101;-66
2021/12/20 00:23:11;;;;;;;4.10;2.93;;;;;;;1.46;81.23;94779.23;1637251;87;21051;-67
2021/12/20 00:25:37;;;;;;;3.63;2.67;;;;;;;1.49;81.20;94773.64;1636982;88;21132;-67
2021/12/20 00:28:04;;;;;;;5.63;4.30;;;;;;;1.54;81.18;94774.06;1637162;88;21012;-67
2021/12/20 00:30:33;;;;;;;5.70;4.00;;;;;;;1.55;81.15;94763.68;1605537;89;21138;-67
2021/12/20 00:32:59;;;;;;;4.17;3.20;;;;;;;1.57;81.30;94763.70;1590341;90;21029;-68
2021/12/20 00:35:26;;;;;;;3.73;2.73;;;;;;;1.59;81.26;94768.44;1637193;88;21020;-67
2021/12/20 00:40:27;;;;;;;4.57;2.73;;;;;;;1.67;80.86;94752.02;1618515;88;21060;-67
2021/12/20 00:42:58;;;;;;;4.57;3.07;;;;;;;1.67;80.79;94755.05;1637357;87;21048;-68
2021/12/20 00:45:29;;;;;;;3.20;2.37;;;;;;;1.67;80.87;94768.05;1636592;88;21064;-67
2021/12/20 00:47:57;;;;;;;4.30;3.27;;;;;;;1.64;81.00;94767.61;1637466;88;21168;-67
2021/12/20 00:50:25;;;;;;;4.77;3.17;;;;;;;1.66;81.16;94779.30;1637331;87;21541;-67
2021/12/20 00:52:52;;;;;;;5.20;3.87;;;;;;;1.64;81.56;94788.41;1637106;88;21028;-67
2021/12/20 00:55:22;;;;;;;3.83;2.73;;;;;;;1.68;81.45;94807.48;1637296;88;21036;-67
2021/12/20 00:57:52;;;;;;;5.13;3.30;;;;;;;1.64;82.38;94801.42;1637304;87;21043;-67
2021/12/20 01:00:26;;;;;;;5.33;2.77;;;;;;;1.59;82.70;94817.44;1637341;87;21470;-67
2021/12/20 01:02:54;;;;;;;3.43;2.53;;;;;;;1.55;82.67;94809.18;1640265;87;21105;-67
2021/12/20 01:05:22;;;;;;;4.80;3.23;;;;;;;1.47;83.14;94813.05;1609446;89;21091;-67
2021/12/20 01:07:50;;;;;;;4.43;3.20;;;;;;;1.42;83.16;94815.20;1609359;89;21028;-67
2021/12/20 01:10:17;;;;;;;4.77;3.60;;;;;;;1.36;83.66;94821.25;1609356;89;21043;-67
2021/12/20 01:12:47;;;;;;;4.07;2.77;;;;;;;1.33;83.70;94830.75;1609453;89;21047;-67
2021/12/20 01:15:18;;;;;;;5.80;4.07;;;;;;;1.28;83.92;94837.22;1609446;89;21063;-67
2021/12/20 01:17:44;;;;;;;6.03;4.00;;;;;;;1.19;84.94;94843.25;1608861;89;21601;-67
2021/12/20 01:20:12;;;;;;;5.33;4.23;;;;;;;1.18;84.62;94846.70;1609716;89;21011;-67
2021/12/20 01:22:43;;;;;;;4.53;3.00;;;;;;;1.13;85.13;94851.44;1609395;89;21015;-67
2021/12/20 01:25:11;;;;;;;5.53;2.80;;;;;;;1.02;85.92;94852.24;1609107;89;21067;-66
2021/12/20 01:27:38;;;;;;;3.50;1.93;;;;;;;0.99;85.87;94851.38;1609452;89;21063;-66
2021/12/20 01:30:08;;;;;;;3.20;2.30;;;;;;;0.98;85.90;94854.41;1609352;89;21517;-66
2021/12/20 01:32:35;;;;;;;2.27;1.27;;;;;;;0.89;86.25;94866.02;1609327;89;21051;-67
2021/12/20 01:35:01;;;;;;;1.83;1.10;;;;;;;0.77;86.56;94864.63;1609524;89;21008;-67
2021/12/20 01:37:28;;;;;;;0.80;0.60;;;;;;;0.78;86.23;94876.34;1609060;89;21071;-67
2021/12/20 01:39:58;;;;;;;1.00;0.80;;;;;;;0.79;85.08;94876.77;1609671;89;21043;-67
2021/12/20 01:42:24;;;;;;;0.30;0.30;;;;;;;0.82;84.55;94873.33;1609244;89;21058;-67
2021/12/20 01:44:55;;;;;;;0.90;0.70;;;;;;;0.84;84.64;94893.25;1609333;89;21046;-67
2021/12/20 01:47:19;;;;;;;2.87;0.77;;;;;;;0.81;83.93;94881.55;1609353;89;21080;-67
2021/12/20 01:50:04;;;;;;;2.20;0.80;;;;;;;0.82;83.46;94888.91;1609457;89;21067;-67
2021/12/20 01:52:26;;;;;;;0.77;0.73;;;;;;;0.79;83.20;94889.75;1609640;89;21055;-67
2021/12/20 01:54:51;;;;;;;1.47;0.90;;;;;;;0.77;83.48;94893.20;1609766;89;21043;-67
2021/12/20 01:57:19;;;;;;;1.77;1.20;;;;;;;0.76;83.79;94900.13;1609389;89;21094;-67
2021/12/20 01:59:46;;;;;;;2.63;1.40;;;;;;;0.77;83.62;94899.25;1609414;89;21059;-66
2021/12/20 02:02:13;;;;;;;1.80;1.60;;;;;;;0.77;83.46;94904.45;1607436;88;21062;-67
2021/12/20 02:04:47;;;;;;;2.23;1.77;;;;;;;0.72;83.36;94902.68;1590417;90;21105;-67
2021/12/20 02:07:08;;;;;;;2.80;2.00;;;;;;;0.67;83.38;94910.42;1590163;90;21105;-67
2021/12/20 02:09:35;;;;;;;3.07;2.23;;;;;;;0.67;83.47;94906.53;1637408;88;21116;-67
2021/12/20 02:12:02;;;;;;;3.37;2.43;;;;;;;0.62;83.92;94905.62;1636975;88;21542;-66
2021/12/20 02:14:28;;;;;;;2.73;2.20;;;;;;;0.55;84.49;94922.00;1637353;87;21043;-66
2021/12/20 02:16:55;;;;;;;2.70;2.13;;;;;;;0.49;84.52;94912.44;1632792;88;21068;-66
2021/12/20 02:19:21;;;;;;;3.83;2.37;;;;;;;0.43;84.65;94910.66;1636757;88;21100;-66
2021/12/20 02:21:48;;;;;;;3.50;1.83;;;;;;;0.33;84.94;94914.47;1637402;87;21518;-66
2021/12/20 02:24:15;;;;;;;3.13;2.10;;;;;;;0.30;84.69;94923.49;1637083;88;21076;-66
2021/12/20 02:26:44;;;;;;;2.73;1.80;;;;;;;0.27;84.57;94922.17;1637320;87;21032;-66
2021/12/20 02:29:11;;;;;;;2.33;1.90;;;;;;;0.17;85.17;94923.80;1637356;88;21565;-66
2021/12/20 02:37:19;;;;;;;2.57;1.50;;;;;;;-0.05;86.03;94942.13;1637364;87;21100;-66
2021/12/20 02:39:43;;;;;;;2.50;1.67;;;;;;;-0.10;85.71;94949.89;1636877;88;21099;-66
2021/12/20 02:42:13;;;;;;;3.47;2.00;;;;;;;-0.12;85.01;94951.59;1637455;87;21060;-66
2021/12/20 02:44:48;;;;;;;3.40;2.03;;;;;;;-0.12;84.64;94944.24;1637075;88;21044;-66
2021/12/20 02:47:26;;;;;;;2.07;1.30;;;;;;;-0.12;84.59;94959.36;1637081;88;21052;-66
2021/12/20 02:49:44;;;;;;;4.47;2.10;;;;;;;-0.17;84.61;94964.92;1636009;88;21059;-66
2021/12/20 02:52:10;;;;;;;1.73;1.20;;;;;;;-0.18;84.52;94962.30;1637359;87;21060;-66
2021/12/20 02:54:37;;;;;;;2.60;1.50;;;;;;;-0.28;84.21;94965.20;1637399;87;21386;-66
2021/12/20 02:57:05;;;;;;;1.63;1.27;;;;;;;-0.26;84.01;94963.06;1637197;88;21529;-66
2021/12/20 02:59:32;;;;;;;2.60;1.50;;;;;;;-0.26;83.97;94967.39;1637023;87;21024;-66
2021/12/20 03:02:04;;;;;;;2.37;1.53;;;;;;;-0.33;83.67;94959.08;1637407;87;21079;-66
2021/12/20 03:04:30;;;;;;;3.30;1.47;;;;;;;-0.37;83.55;94969.85;1621289;87;21098;-66
2021/12/20 03:07:05;;;;;;;2.83;1.43;;;;;;;-0.35;83.67;94971.14;1620896;88;21363;-66
2021/12/20 03:09:38;;;;;;;4.10;2.43;;;;;;;-0.40;84.09;94975.40;1620792;88;21082;-66
2021/12/20 03:12:08;;;;;;;3.65;1.98;;;;;;;-0.38;84.10;94980.19;1621158;88;21050;-66
2021/12/20 03:14:40;;;;;;;3.27;1.80;;;;;;;-0.42;84.72;94980.58;1620839;88;21050;-66
2021/12/20 03:17:06;;;;;;;1.97;1.30;;;;;;;-0.46;84.87;94987.86;1621050;88;21569;-66
2021/12/20 03:19:33;;;;;;;2.67;1.60;;;;;;;-0.51;84.46;94987.79;1620784;88;21047;-66
2021/12/20 03:22:00;;;;;;;3.73;2.03;;;;;;;-0.51;84.45;94995.99;1620788;88;21076;-66
2021/12/20 03:24:27;;;;;;;2.57;1.73;;;;;;;-0.49;84.07;94987.83;1621043;88;21086;-66
2021/12/20 03:26:54;;;;;;;2.47;1.43;;;;;;;-0.51;83.96;94992.97;1620877;88;21572;-66
2021/12/20 03:29:21;;;;;;;1.77;1.30;;;;;;;-0.51;83.70;94996.86;1620962;88;21047;-66
2021/12/20 03:31:48;;;;;;;1.77;1.23;;;;;;;-0.51;83.09;94999.88;1620673;88;21145;-66
2021/12/20 03:34:16;;;;;;;1.97;1.30;;;;;;;-0.47;83.40;94999.09;1620566;88;21094;-66
2021/12/20 03:36:43;;;;;;;1.13;1.00;;;;;;;-0.47;82.98;94998.66;1620837;88;21030;-66
2021/12/20 03:39:11;;;;;;;1.80;1.20;;;;;;;-0.44;82.75;94985.73;1620781;88;21121;-66
2021/12/20 03:41:38;;;;;;;2.87;1.63;;;;;;;-0.41;82.48;94988.80;1620908;88;21089;-66
2021/12/20 03:44:07;;;;;;;2.67;1.40;;;;;;;-0.45;81.16;94993.08;1620428;88;21591;-66
2021/12/20 03:46:36;;;;;;;3.17;1.90;;;;;;;-0.47;80.39;94989.59;1621009;88;21006;-66
2021/12/20 03:49:04;;;;;;;4.87;2.17;;;;;;;-0.53;78.28;94994.70;1620798;88;21055;-66
2021/12/20 03:51:31;;;;;;;2.57;1.53;;;;;;;-0.57;77.78;94989.02;1620754;88;21058;-66
2021/12/20 03:53:58;;;;;;;0.70;0.60;;;;;;;-0.59;77.88;94995.89;1621036;88;21046;-66
2021/12/20 03:56:24;;;;;;;2.13;0.90;;;;;;;-0.68;76.16;95003.12;1621063;88;21066;-66
2021/12/20 03:58:51;;;;;;;2.47;1.50;;;;;;;-0.62;77.35;95009.23;1620602;88;21054;-66
2021/12/20 04:01:18;;;;;;;1.63;0.80;;;;;;;-0.64;76.45;95005.75;1621011;88;21082;-66
2021/12/20 04:03:44;;;;;;;6.20;3.63;;;;;;;-0.66;76.40;95008.30;1629274;88;21103;-67
2021/12/20 04:06:13;;;;;;;242.67;160.83;;;;;;;-0.70;76.41;95007.40;1637184;87;21055;-66
2021/12/20 04:08:41;;;;;;;14.07;7.97;;;;;;;-0.69;77.47;95002.65;1637176;87;21051;-66
2021/12/20 04:11:09;;;;;;;11.27;7.40;;;;;;;-0.69;77.65;95007.83;1637076;88;21112;-66
2021/12/20 04:13:36;;;;;;;6.87;4.13;;;;;;;-0.68;77.02;95007.40;1637260;87;21529;-66
2021/12/20 04:16:03;;;;;;;3.27;1.63;;;;;;;-0.67;77.20;95022.98;1637459;87;21048;-66
2021/12/20 04:18:31;;;;;;;3.33;1.33;;;;;;;-0.69;76.47;95014.31;1637139;87;21067;-66
2021/12/20 04:20:58;;;;;;;2.60;1.50;;;;;;;-0.71;76.74;95025.50;1636954;88;21123;-66
2021/12/20 04:23:25;;;;;;;2.60;1.70;;;;;;;-0.71;76.95;95023.77;1637267;88;21032;-66
2021/12/20 04:25:51;;;;;;;4.63;2.27;;;;;;;-0.68;77.21;95032.91;1636760;87;21036;-66
2021/12/20 04:28:18;;;;;;;4.20;2.07;;;;;;;-0.68;77.30;95032.02;1637199;87;21083;-66
2021/12/20 04:30:45;;;;;;;3.67;1.63;;;;;;;-0.70;77.26;95035.89;1636934;88;21064;-66
2021/12/20 04:33:12;;;;;;;4.37;3.00;;;;;;;-0.72;77.31;95037.58;1637101;88;21024;-66
2021/12/20 04:35:38;;;;;;;1.90;1.10;;;;;;;-0.69;77.67;95045.39;1637167;88;21518;-66
2021/12/20 04:38:07;;;;;;;2.23;1.27;;;;;;;-0.74;77.53;95041.86;1636968;87;21064;-66
2021/12/20 04:40:34;;;;;;;3.70;1.10;;;;;;;-0.80;77.42;95053.44;1637167;87;21112;-67
2021/12/20 04:43:00;;;;;;;2.93;1.83;;;;;;;-0.82;77.75;95048.65;1637158;88;21076;-66
2021/12/20 04:45:30;;;;;;;2.20;1.60;;;;;;;-0.81;77.60;95058.15;1637325;87;21525;-66
2021/12/20 04:47:58;;;;;;;2.73;1.50;;;;;;;-0.83;77.62;95058.97;1637024;88;21095;-67
2021/12/20 04:50:28;;;;;;;2.40;1.40;;;;;;;-0.87;77.79;95064.11;1637164;88;21024;-67
2021/12/20 04:52:55;;;;;;;3.27;1.63;;;;;;;-0.87;77.98;95063.24;1637071;88;21083;-67
2021/12/20 04:55:24;;;;;;;3.17;2.10;;;;;;;-0.85;77.93;95068.03;1637183;87;21497;-66
2021/12/20 04:57:52;;;;;;;4.80;1.80;;;;;;;-0.82;78.03;95068.50;1636976;88;21068;-66
2021/12/20 05:00:24;;;;;;;5.47;3.97;;;;;;;-0.83;77.97;95072.82;1637069;88;21048;-67
2021/12/20 05:02:51;;;;;;;3.10;1.90;;;;;;;-0.84;77.78;95077.96;1637727;87;21020;-67
2021/12/20 05:05:19;;;;;;;2.70;1.80;;;;;;;-0.85;77.70;95089.19;1640813;87;21551;-67
2021/12/20 05:07:46;;;;;;;4.17;1.57;;;;;;;-0.85;77.80;95090.05;1640831;87;21493;-67
2021/12/20 05:10:26;;;;;;;3.80;2.17;;;;;;;-0.87;77.69;95090.01;1640947;87;21050;-67
2021/12/20 05:12:44;;;;;;;2.50;1.63;;;;;;;-0.92;77.60;95089.06;1641155;87;21062;-67
2021/12/20 05:15:11;;;;;;;1.37;1.20;;;;;;;-0.89;77.88;95089.10;1640873;87;21105;-67
2021/12/20 05:17:37;;;;;;;3.83;1.60;;;;;;;-0.94;77.57;95090.74;1640984;87;21066;-67
2021/12/20 05:20:05;;;;;;;5.27;1.97;;;;;;;-0.97;77.09;95094.58;1616982;87;21528;-67
2021/12/20 05:22:32;;;;;;;2.23;1.57;;;;;;;-1.01;77.30;95096.66;1640979;87;21066;-67
2021/12/20 05:24:59;;;;;;;3.20;1.60;;;;;;;-1.09;77.41;95102.13;1640943;87;21038;-67
2021/12/20 05:27:25;;;;;;;2.33;1.40;;;;;;;-1.20;77.51;95099.36;1641029;87;21054;-67
2021/12/20 05:29:52;;;;;;;2.33;1.70;;;;;;;-1.29;78.17;95110.82;1640955;87;21038;-67
2021/12/20 05:32:19;;;;;;;2.03;1.00;;;;;;;-1.36;77.74;95112.84;1640893;87;21114;-67
2021/12/20 05:34:45;;;;;;;1.70;0.90;;;;;;;-1.38;77.46;95115.41;1609490;89;21040;-67
2021/12/20 05:37:13;;;;;;;2.23;1.13;;;;;;;-1.38;76.95;95115.84;1609375;89;21026;-67
2021/12/20 05:39:41;;;;;;;1.07;0.83;;;;;;;-1.40;77.27;95122.27;1609406;89;21083;-67
2021/12/20 05:42:08;;;;;;;3.33;1.37;;;;;;;-1.45;76.87;95118.72;1609602;89;21063;-67
2021/12/20 05:44:35;;;;;;;3.90;1.70;;;;;;;-1.50;76.71;95124.66;1609468;89;21058;-67
2021/12/20 05:47:03;;;;;;;5.57;1.80;;;;;;;-1.47;77.14;95128.16;1609425;89;21549;-67
2021/12/20 05:49:31;;;;;;;3.37;1.43;;;;;;;-1.43;77.14;95122.22;1609338;89;21473;-67
2021/12/20 05:52:05;;;;;;;3.40;1.23;;;;;;;-1.40;77.42;95125.28;1609525;89;21521;-67
2021/12/20 05:54:32;;;;;;;2.57;1.00;;;;;;;-1.41;77.76;95122.23;1609537;89;21059;-69
2021/12/20 05:56:59;;;;;;;2.00;0.90;;;;;;;-1.48;76.87;95125.56;1609481;89;21035;-69
2021/12/20 05:59:26;;;;;;;2.87;1.10;;;;;;;-1.44;76.12;95126.92;1609487;89;21051;-68
2021/12/20 06:01:52;;;;;;;1.87;0.90;;;;;;;-1.41;75.50;95130.89;1609533;89;21063;-66
2021/12/20 06:04:19;;;;;;;5.37;3.27;;;;;;;-1.43;74.73;95122.22;1614622;88;21070;-67
2021/12/20 06:06:45;;;;;;;2.10;1.20;;;;;;;-1.39;74.87;95129.61;1620290;88;21085;-67
2021/12/20 06:09:12;;;;;;;6.00;3.40;;;;;;;-1.37;74.83;95135.27;1619913;88;21073;-69
2021/12/20 06:11:39;;;;;;;3.07;1.00;;;;;;;-1.35;74.62;95137.46;1620309;88;21118;-70
2021/12/20 06:14:05;;;;;;;1.83;0.80;;;;;;;-1.32;73.95;95134.92;1620636;88;21018;-72
2021/12/20 06:16:32;;;;;;;1.40;1.00;;;;;;;-1.31;73.72;95139.28;1636845;87;21129;-71
2021/12/20 06:18:59;;;;;;;2.67;1.33;;;;;;;-1.26;74.11;95146.23;1646884;87;21094;-77
2021/12/20 06:21:25;;;;;;;2.70;0.60;;;;;;;-1.26;73.83;95156.20;1646927;87;21104;-79
2021/12/20 06:23:52;;;;;;;0.57;0.40;;;;;;;-1.24;73.60;95160.95;1647071;87;21570;-77
2021/12/20 06:26:23;;;;;;;1.63;0.80;;;;;;;-1.26;73.65;95157.89;1634157;87;21097;-79
2021/12/20 06:28:47;;;;;;;2.53;1.40;;;;;;;-1.22;73.70;95157.12;1608123;88;21567;-71
2021/12/20 06:31:13;;;;;;;3.73;2.10;;;;;;;-1.21;73.71;95162.73;1608461;88;21124;-69
2021/12/20 06:33:40;;;;;;;1.63;1.10;;;;;;;-1.21;73.50;95170.50;1608061;88;21002;-67
2021/12/20 06:36:07;;;;;;;3.63;2.77;;;;;;;-1.24;71.97;95173.03;1585352;90;21047;-69
2021/12/20 06:38:35;;;;;;;5.27;2.70;;;;;;;-1.22;72.38;95171.35;1590523;90;21069;-71
2021/12/20 06:41:02;;;;;;;2.37;1.47;;;;;;;-1.23;71.77;95173.50;1590391;90;21061;-67
2021/12/20 06:43:30;;;;;;;3.57;1.67;;;;;;;-1.19;71.80;95185.64;1591107;90;21081;-68
2021/12/20 06:45:57;;;;;;;5.03;3.07;;;;;;;-1.18;71.68;95184.82;1590190;90;21106;-66
2021/12/20 06:48:23;;;;;;;3.60;2.07;;;;;;;-1.15;71.63;95183.58;1590718;90;21046;-66
2021/12/20 06:50:50;;;;;;;3.50;1.20;;;;;;;-1.19;70.45;95184.35;1591151;90;21101;-67
2021/12/20 06:53:16;;;;;;;5.47;1.70;;;;;;;-1.20;69.95;95178.31;1591233;90;21098;-67
2021/12/20 06:55:43;;;;;;;40.20;15.73;;;;;;;-1.21;69.28;95183.44;1590355;90;21535;-68
2021/12/20 06:58:10;;;;;;;29.37;12.83;;;;;;;-1.17;70.00;95186.55;1590490;90;21071;-67
2021/12/20 07:00:37;;;;;;;2.93;1.80;;;;;;;-1.11;69.94;95191.84;1590814;90;21574;-68
2021/12/20 07:03:04;;;;;;;2.67;1.93;;;;;;;-1.07;69.50;95190.20;1590594;90;21019;-69
2021/12/20 07:05:30;;;;;;;3.23;1.43;;;;;;;-1.06;69.29;95195.39;1605988;89;21478;-69
2021/12/20 07:07:57;;;;;;;4.37;1.60;;;;;;;-1.00;69.06;95211.48;1608288;89;21122;-68
2021/12/20 07:10:24;;;;;;;3.77;1.80;;;;;;;-0.96;69.45;95201.63;1608427;89;21104;-67
2021/12/20 07:12:51;;;;;;;2.03;1.00;;;;;;;-0.94;70.09;95205.98;1607982;89;21077;-74
2021/12/20 07:15:18;;;;;;;1.40;1.20;;;;;;;-0.94;70.21;95203.83;1607647;89;21137;-71
2021/12/20 07:17:45;;;;;;;4.43;1.40;;;;;;;-0.94;70.10;95211.59;1608618;89;21588;-68
2021/12/20 07:20:13;;;;;;;16.70;10.10;;;;;;;-0.95;70.56;95214.61;1608345;89;21057;-67
2021/12/20 07:22:40;;;;;;;2.03;1.63;;;;;;;-0.92;70.96;95224.16;1612178;89;21120;-68
2021/12/20 07:25:08;;;;;;;2.70;1.27;;;;;;;-0.90;70.95;95224.64;1607934;88;21118;-68
2021/12/20 07:27:35;;;;;;;2.47;1.13;;;;;;;-0.84;71.21;95235.53;1608894;89;21501;-68
2021/12/20 07:30:04;;;;;;;2.93;0.80;;;;;;;-0.81;70.65;95230.83;1607647;89;21050;-69
2021/12/20 07:32:31;;;;;;;3.33;1.40;;;;;;;-0.79;70.64;95228.72;1607486;89;22317;-69
2021/12/20 07:34:58;;;;;;;2.20;1.20;;;;;;;-0.72;70.84;95234.90;1606723;89;21136;-70
2021/12/20 07:37:28;;;;;;;2.50;1.17;;;;;;;-0.75;71.03;95243.91;1607407;89;21143;-66
2021/12/20 07:39:55;;;;;;;3.23;1.27;;;;;;;-0.79;70.23;95235.20;1607986;89;21521;-67
2021/12/20 07:42:22;;;;;;;5.20;3.13;;;;;;;-0.79;70.38;95233.03;1607339;89;21030;-65
2021/12/20 07:44:48;;;;;;;2.87;1.50;;;;;;;-0.78;70.68;95242.14;1608315;89;21118;-66
2021/12/20 07:47:15;;;;;;;2.97;1.67;;;;;;;-0.72;70.66;95248.72;1608361;89;21101;-64
2021/12/20 07:49:42;;;;;;;11.40;6.47;;;;;;;-0.71;70.02;95253.47;1607072;89;21125;-66
2021/12/20 07:52:09;;;;;;;4.23;2.60;;;;;;;-0.69;70.61;95250.50;1608723;89;21070;-65
2021/12/20 07:54:35;;;;;;;21.13;15.53;;;;;;;-0.62;69.99;95242.00;1608089;89;21087;-63
2021/12/20 07:57:02;;;;;;;3.33;1.90;;;;;;;-0.61;69.40;95254.09;1586712;89;21090;-65
2021/12/20 07:59:29;;;;;;;14.10;12.27;;;;;;;-0.58;69.21;95246.41;1607836;89;21057;-63
2021/12/20 08:01:56;;;;;;;4.77;1.30;;;;;;;-0.52;69.74;95246.50;1607939;89;21520;-66
2021/12/20 08:04:23;;;;;;;4.87;3.77;;;;;;;-0.48;69.18;95259.08;1612406;88;21118;-65
2021/12/20 08:06:49;;;;;;;2.07;1.60;;;;;;;-0.45;68.58;95253.97;1624603;88;21046;-66
2021/12/20 08:09:16;;;;;;;5.60;4.63;;;;;;;-0.41;68.59;95257.48;1624632;88;21539;-66
2021/12/20 08:11:44;;;;;;;5.20;3.50;;;;;;;-0.40;68.30;95250.14;1624581;88;21124;-67
2021/12/20 08:14:11;;;;;;;3.67;2.43;;;;;;;-0.36;68.61;95247.64;1625974;87;21649;-67
2021/12/20 08:16:38;;;;;;;2.23;0.80;;;;;;;-0.38;68.07;95251.05;1622615;88;21117;-67
2021/12/20 08:19:05;;;;;;;1.07;0.40;;;;;;;-0.40;67.47;95261.41;1623754;88;21147;-67
2021/12/20 08:21:32;;;;;;;3.70;2.00;;;;;;;-0.33;67.67;95255.89;1623470;88;21109;-65
2021/12/20 08:23:59;;;;;;;2.60;2.23;;;;;;;-0.31;68.13;95250.31;1623585;88;21523;-66
2021/12/20 08:26:26;;;;;;;2.90;0.90;;;;;;;-0.32;67.86;95256.36;1623346;88;21093;-68
2021/12/20 08:28:53;;;;;;;3.73;1.00;;;;;;;-0.28;68.04;95257.74;1623653;88;21105;-68
2021/12/20 08:31:20;;;;;;;2.33;1.73;;;;;;;-0.33;66.74;95261.97;1623404;88;21046;-68
2021/12/20 08:33:47;;;;;;;2.20;0.90;;;;;;;-0.35;67.49;95270.14;1624258;88;21162;-66
2021/12/20 08:36:13;;;;;;;1.30;0.93;;;;;;;-0.38;67.25;95273.95;1624561;88;21069;-68
2021/12/20 08:38:41;;;;;;;1.73;1.07;;;;;;;-0.36;66.87;95276.16;1624527;88;21531;-68
2021/12/20 08:41:11;;;;;;;3.77;1.03;;;;;;;-0.34;67.51;95279.66;1624141;88;21080;-67
2021/12/20 08:43:39;;;;;;;2.10;0.90;;;;;;;-0.35;67.17;95274.42;1623683;88;22367;-68
2021/12/20 08:46:06;;;;;;;1.07;0.90;;;;;;;-0.26;67.53;95285.84;1623836;88;21149;-68
2021/12/20 08:48:33;;;;;;;2.60;1.10;;;;;;;-0.17;67.13;95284.28;1623859;88;21374;-68
2021/12/20 08:51:01;;;;;;;3.60;1.87;;;;;;;-0.14;66.25;95285.19;1623715;88;21547;-68
2021/12/20 08:53:29;;;;;;;1.70;1.00;;;;;;;-0.15;65.63;95292.53;1622997;88;21090;-71
2021/12/20 08:55:57;;;;;;;3.33;1.60;;;;;;;-0.09;65.46;95291.76;1624172;88;21030;-71
2021/12/20 08:58:24;;;;;;;5.90;3.03;;;;;;;-0.13;65.37;95284.77;1623245;88;21074;-70
2021/12/20 09:00:52;;;;;;;5.17;3.67;;;;;;;-0.07;65.41;95287.48;1624176;88;21165;-67
2021/12/20 09:03:19;;;;;;;5.17;4.33;;;;;;;-0.02;65.30;95283.24;1623659;88;21081;-65
2021/12/20 09:05:46;;;;;;;4.00;2.23;;;;;;;0.09;64.77;95276.92;1612161;88;21157;-68
2021/12/20 09:08:16;;;;;;;3.10;2.23;;;;;;;0.23;64.71;95286.22;1607971;89;21121;-67
2021/12/20 09:10:43;;;;;;;1.03;0.80;;;;;;;0.26;64.58;95288.45;1607366;89;21609;-66
2021/12/20 09:13:10;;;;;;;2.23;1.50;;;;;;;0.33;63.81;95290.73;1607356;89;21149;-67
2021/12/20 09:15:37;;;;;;;3.70;1.87;;;;;;;0.43;63.47;95290.02;1607849;89;21097;-66
2021/12/20 09:18:07;;;;;;;1.30;0.60;;;;;;;0.43;61.95;95285.70;1608640;89;21091;-66
2021/12/20 09:20:36;;;;;;;6.57;4.30;;;;;;;0.50;61.45;95292.27;1608554;89;21026;-64
2021/12/20 09:23:05;;;;;;;9.07;6.57;;;;;;;0.58;62.56;95280.27;1608120;89;21162;-67
2021/12/20 09:25:37;;;;;;;1.23;0.70;;;;;;;0.62;61.52;95289.86;1608380;89;21034;-66
2021/12/20 09:28:08;;;;;;;1.00;0.62;;;;;;;0.62;60.17;95292.02;1607089;89;21459;-66
2021/12/20 09:30:35;;;;;;;1.33;0.90;;;;;;;0.58;60.28;95296.74;1608851;89;21500;-68
2021/12/20 09:33:04;;;;;;;1.83;1.10;;;;;;;0.51;61.23;95314.80;1608422;89;21102;-67
2021/12/20 09:35:32;;;;;;;1.33;0.87;;;;;;;0.42;62.08;95308.59;1607760;89;21621;-67
2021/12/20 09:37:59;;;;;;;2.50;1.20;;;;;;;0.29;62.38;95297.58;1608236;89;21563;-66
2021/12/20 09:40:36;;;;;;;2.97;1.00;;;;;;;0.11;64.20;95318.91;1607835;89;21396;-66
2021/12/20 09:43:06;;;;;;;14.63;9.63;;;;;;;0.14;65.10;95308.58;1607444;89;21089;-70
2021/12/20 09:45:33;;;;;;;15.30;10.53;;;;;;;0.19;66.00;95313.84;1608365;89;21679;-67
2021/12/20 09:48:01;;;;;;;2.00;1.10;;;;;;;0.22;65.98;95298.33;1608172;89;21086;-66
2021/12/20 09:50:28;;;;;;;2.03;1.07;;;;;;;0.30;66.28;95299.74;1608468;89;21098;-68
2021/12/20 09:52:54;;;;;;;6.40;2.97;;;;;;;0.26;67.63;95304.45;1608892;89;21007;-69
2021/12/20 09:55:21;;;;;;;3.40;1.37;;;;;;;0.27;67.98;95310.08;1608582;89;21046;-73
2021/12/20 09:57:49;;;;;;;1.23;0.83;;;;;;;0.24;67.70;95307.44;1608150;89;21081;-66
2021/12/20 10:00:20;;;;;;;2.30;0.90;;;;;;;0.13;68.50;95313.76;1607826;89;21085;-70
2021/12/20 10:02:47;;;;;;;3.93;2.50;;;;;;;0.08;68.46;95325.34;1607905;89;21042;-70
2021/12/20 10:05:17;;;;;;;2.80;2.27;;;;;;;0.02;68.02;95325.66;1590112;88;21102;-67
2021/12/20 10:07:51;;;;;;;1.77;0.93;;;;;;;-0.02;69.17;95332.09;1619551;88;21560;-68
2021/12/20 10:10:38;;;;;;;15.07;11.77;;;;;;;-0.05;68.86;95331.14;1619847;88;21050;-67
2021/12/20 10:13:06;;;;;;;10.57;9.57;;;;;;;0.01;69.58;95330.41;1594296;89;21132;-67
2021/12/20 10:15:37;;;;;;;3.60;2.50;;;;;;;0.02;70.00;95334.30;1606739;88;21071;-68
2021/12/20 10:18:07;;;;;;;7.70;3.50;;;;;;;0.05;70.40;95325.30;1630101;88;21010;-68
2021/12/20 10:20:35;;;;;;;14.93;9.07;;;;;;;0.02;71.16;95335.59;1629430;88;21118;-67
2021/12/20 10:23:22;;;;;;;5.80;2.70;;;;;;;0.04;70.96;95325.27;1630836;87;21145;-67
2021/12/20 10:25:53;;;;;;;3.90;2.00;;;;;;;0.04;70.90;95320.08;1621504;88;21517;-67
2021/12/20 10:28:24;;;;;;;4.30;2.63;;;;;;;0.09;70.57;95316.70;1630888;87;21286;-68
2021/12/20 10:31:06;;;;;;;6.97;4.67;;;;;;;0.18;70.85;95314.28;1630902;88;21027;-68
2021/12/20 10:33:33;;;;;;;4.73;2.13;;;;;;;0.25;70.81;95312.64;1631216;87;21019;-68
2021/12/20 10:36:05;;;;;;;2.63;1.83;;;;;;;0.22;70.91;95307.41;1631890;88;21019;-67
2021/12/20 10:38:38;;;;;;;6.80;3.70;;;;;;;0.07;71.34;95314.94;1631918;87;21054;-68
2021/12/20 10:41:16;;;;;;;5.37;2.52;;;;;;;0.04;71.84;95319.64;1632300;88;20999;-67
2021/12/20 10:43:54;;;;;;;3.40;1.63;;;;;;;-0.05;72.52;95312.98;1631923;87;21082;-67
2021/12/20 10:46:25;;;;;;;5.90;4.40;;;;;;;-0.08;72.51;95310.34;1631916;88;21536;-67
2021/12/20 10:49:06;;;;;;;8.27;5.50;;;;;;;-0.15;73.46;95298.12;1592671;88;21030;-67
2021/12/20 10:51:40;;;;;;;3.67;2.23;;;;;;;-0.11;72.99;95299.50;1592383;90;21038;-67
2021/12/20 10:54:11;;;;;;;7.57;5.33;;;;;;;-0.03;73.41;95294.02;1592330;90;21058;-67
2021/12/20 10:57:01;;;;;;;5.30;3.40;;;;;;;-0.01;73.58;95298.81;1592545;90;21081;-67
2021/12/20 10:59:32;;;;;;;10.43;6.00;;;;;;;0.11;73.52;95302.48;1592397;90;21054;-67
2021/12/20 11:04:58;;;;;;;6.33;4.83;;;;;;;0.30;71.83;95295.42;1592155;90;21069;-67
2021/12/20 11:09:55;;;;;;;3.60;2.50;;;;;;;0.23;71.03;95291.00;1591379;90;21614;-67
2021/12/20 11:12:31;;;;;;;4.67;2.43;;;;;;;0.20;70.24;95294.42;1590793;90;21145;-67
2021/12/20 11:15:07;;;;;;;2.60;1.60;;;;;;;0.14;69.05;95291.71;1591644;90;21047;-67
2021/12/20 11:17:35;;;;;;;6.20;2.40;;;;;;;0.24;69.91;95291.44;1592075;90;21070;-67
2021/12/20 11:20:03;;;;;;;4.73;1.70;;;;;;;0.35;69.99;95298.99;1592096;90;21096;-67
2021/12/20 11:22:32;;;;;;;3.13;2.00;;;;;;;0.43;68.68;95297.38;1592514;90;21536;-67
2021/12/20 11:25:08;;;;;;;4.33;2.07;;;;;;;0.38;69.16;95295.57;1592439;90;21094;-67
2021/12/20 11:27:52;;;;;;;4.93;2.70;;;;;;;0.36;68.81;95292.94;1592493;90;21560;-67
2021/12/20 11:30:20;;;;;;;5.63;2.53;;;;;;;0.47;69.00;95303.48;1592033;90;21035;-67
2021/12/20 11:32:49;;;;;;;4.70;2.20;;;;;;;0.61;68.40;95315.39;1592431;90;21512;-67
2021/12/20 11:35:20;;;;;;;3.67;2.33;;;;;;;0.66;68.05;95316.76;1592478;90;21508;-67
2021/12/20 11:37:46;;;;;;;7.73;4.40;;;;;;;0.64;67.87;95324.08;1592311;90;21127;-67
2021/12/20 11:40:17;;;;;;;5.13;2.47;;;;;;;0.64;68.27;95320.19;1592254;90;21039;-67
2021/12/20 11:42:44;;;;;;;6.43;4.73;;;;;;;0.57;68.87;95319.64;1591745;89;21170;-67
2021/12/20 11:45:15;;;;;;;1.63;1.37;;;;;;;0.51;68.30;95313.50;1647942;87;21042;-67
2021/12/20 11:47:52;;;;;;;2.87;2.23;;;;;;;0.42;69.50;95315.52;1647734;87;21049;-67
2021/12/20 11:50:23;;;;;;;2.87;1.20;;;;;;;0.36;68.37;95319.32;1647823;87;21101;-67
2021/12/20 11:52:55;;;;;;;5.20;2.13;;;;;;;0.16;69.11;95328.94;1647583;87;21097;-67
2021/12/20 11:55:29;;;;;;;2.87;1.50;;;;;;;0.05;68.80;95324.00;1647004;87;21058;-67